sensor_id;sensor_type;location;lat;lon;timestamp;pressure;altitude;pressure_sealevel;temperature;humidity
78182;BME280;67441;50.116;8.696;2023-03-15T00:00:04;99959.88;;;4.52;63.72
78182;BME280;67441;50.116;8.696;2023-03-15T00:00:30;99945.38;;;4.32;63.50
78182;BME280;67441;50.116;8.696;2023-03-15T00:00:56;99971.09;;;4.49;63.88
78182;BME280;67441;50.116;8.696;2023-03-15T00:01:21;99827.13;;;3.66;63.75
78182;BME280;67441;50.116;8.696;2023-03-15T00:01:51;99798.78;;;3.18;63.62
78182;BME280;67441;50.116;8.696;2023-03-15T00:02:16;99973.63;;;4.46;63.98
78182;BME280;67441;50.116;8.696;2023-03-15T00:02:41;99315.09;;;0.49;63.31
78182;BME280;67441;50.116;8.696;2023-03-15T00:03:07;99981.44;;;4.46;64.00
78182;BME280;67441;50.116;8.696;2023-03-15T00:03:33;99431.19;;;1.11;63.99
78182;BME280;67441;50.116;8.696;2023-03-15T00:04:01;99619.38;;;2.32;63.63
78182;BME280;67441;50.116;8.696;2023-03-15T00:04:30;99735.34;;;2.84;64.20
78182;BME280;67441;50.116;8.696;2023-03-15T00:04:58;99495.78;;;1.56;63.79
78182;BME280;67441;50.116;8.696;2023-03-15T00:05:24;99978.69;;;4.42;63.69
78182;BME280;67441;50.116;8.696;2023-03-15T00:05:49;99665.72;;;2.47;64.21
78182;BME280;67441;50.116;8.696;2023-03-15T00:06:16;100015.19;;;4.42;64.35
78182;BME280;67441;50.116;8.696;2023-03-15T00:06:41;99975.97;;;4.37;63.96
78182;BME280;67441;50.116;8.696;2023-03-15T00:07:07;99978.56;;;4.37;64.43
78182;BME280;67441;50.116;8.696;2023-03-15T00:07:32;99982.81;;;4.34;64.19
78182;BME280;67441;50.116;8.696;2023-03-15T00:07:57;99864.22;;;3.59;64.29
78182;BME280;67441;50.116;8.696;2023-03-15T00:08:23;99981.09;;;4.34;64.06
78182;BME280;67441;50.116;8.696;2023-03-15T00:08:48;99980.25;;;4.35;64.70
78182;BME280;67441;50.116;8.696;2023-03-15T00:09:13;99978.47;;;4.34;64.71
78182;BME280;67441;50.116;8.696;2023-03-15T00:09:39;99978.56;;;4.37;64.85
78182;BME280;67441;50.116;8.696;2023-03-15T00:10:04;99974.94;;;4.32;64.80
78182;BME280;67441;50.116;8.696;2023-03-15T00:10:30;99537.75;;;1.70;65.14
78182;BME280;67441;50.116;8.696;2023-03-15T00:10:55;99984.34;;;4.27;65.38
78182;BME280;67441;50.116;8.696;2023-03-15T00:11:20;99695.31;;;2.25;65.29
78182;BME280;67441;50.116;8.696;2023-03-15T00:11:46;99982.72;;;4.31;65.21
78182;BME280;67441;50.116;8.696;2023-03-15T00:12:11;99666.97;;;2.33;65.10
78182;BME280;67441;50.116;8.696;2023-03-15T00:12:36;99982.56;;;4.26;65.38
78182;BME280;67441;50.116;8.696;2023-03-15T00:13:02;99911.88;;;3.85;65.54
78182;BME280;67441;50.116;8.696;2023-03-15T00:13:27;99983.50;;;4.28;65.41
78182;BME280;67441;50.116;8.696;2023-03-15T00:13:52;99582.78;;;1.99;65.24
78182;BME280;67441;50.116;8.696;2023-03-15T00:14:18;99983.50;;;4.28;65.52
78182;BME280;67441;50.116;8.696;2023-03-15T00:14:43;99978.34;;;4.29;65.31
78182;BME280;67441;50.116;8.696;2023-03-15T00:15:09;99985.25;;;4.29;65.60
78182;BME280;67441;50.116;8.696;2023-03-15T00:15:43;99818.25;;;3.31;65.57
78182;BME280;67441;50.116;8.696;2023-03-15T00:16:10;99979.13;;;4.27;65.70
78182;BME280;67441;50.116;8.696;2023-03-15T00:16:36;99955.13;;;4.09;65.54
78182;BME280;67441;50.116;8.696;2023-03-15T00:17:01;99989.47;;;4.24;65.60
78182;BME280;67441;50.116;8.696;2023-03-15T00:17:27;99989.50;;;4.25;65.52
78182;BME280;67441;50.116;8.696;2023-03-15T00:17:53;99987.72;;;4.24;65.45
78182;BME280;67441;50.116;8.696;2023-03-15T00:18:18;99989.47;;;4.24;65.52
78182;BME280;67441;50.116;8.696;2023-03-15T00:18:45;99992.97;;;4.26;65.47
78182;BME280;67441;50.116;8.696;2023-03-15T00:19:11;99928.50;;;3.89;64.97
78182;BME280;67441;50.116;8.696;2023-03-15T00:19:36;99997.16;;;4.19;64.70
78182;BME280;67441;50.116;8.696;2023-03-15T00:20:02;99956.47;;;3.96;64.73
78182;BME280;67441;50.116;8.696;2023-03-15T00:20:29;99998.03;;;4.20;64.43
78182;BME280;67441;50.116;8.696;2023-03-15T00:20:54;99718.78;;;2.55;64.57
78182;BME280;67441;50.116;8.696;2023-03-15T00:21:20;100001.53;;;4.22;64.82
78182;BME280;67441;50.116;8.696;2023-03-15T00:21:46;99848.88;;;3.40;64.55
78182;BME280;67441;50.116;8.696;2023-03-15T00:22:11;99998.06;;;4.21;64.68
78182;BME280;67441;50.116;8.696;2023-03-15T00:22:37;99674.59;;;2.28;64.37
78182;BME280;67441;50.116;8.696;2023-03-15T00:23:02;100004.88;;;4.16;64.68
78182;BME280;67441;50.116;8.696;2023-03-15T00:23:28;100008.44;;;4.20;64.29
78182;BME280;67441;50.116;8.696;2023-03-15T00:23:53;100001.31;;;4.14;64.66
78182;BME280;67441;50.116;8.696;2023-03-15T00:24:18;99496.59;;;1.04;64.32
78182;BME280;67441;50.116;8.696;2023-03-15T00:24:43;100003.91;;;4.14;64.35
78182;BME280;67441;50.116;8.696;2023-03-15T00:25:09;99870.56;;;3.40;63.95
78182;BME280;67441;50.116;8.696;2023-03-15T00:25:34;100018.63;;;4.12;64.31
78182;BME280;67441;50.116;8.696;2023-03-15T00:26:00;99474.81;;;0.99;64.23
78182;BME280;67441;50.116;8.696;2023-03-15T00:26:25;100001.06;;;4.07;64.36
78182;BME280;67441;50.116;8.696;2023-03-15T00:26:51;99981.56;;;3.94;64.09
78182;BME280;67441;50.116;8.696;2023-03-15T00:27:16;100009.81;;;4.09;63.95
78182;BME280;67441;50.116;8.696;2023-03-15T00:27:41;100014.19;;;4.10;63.98
78182;BME280;67441;50.116;8.696;2023-03-15T00:28:07;100014.03;;;4.05;64.05
78182;BME280;67441;50.116;8.696;2023-03-15T00:28:32;99872.50;;;3.19;63.50
78182;BME280;67441;50.116;8.696;2023-03-15T00:28:58;100010.63;;;4.06;63.70
78182;BME280;67441;50.116;8.696;2023-03-15T00:29:23;99402.41;;;0.53;63.62
78182;BME280;67441;50.116;8.696;2023-03-15T00:29:48;100012.41;;;4.09;63.61
78182;BME280;67441;50.116;8.696;2023-03-15T00:30:14;100015.84;;;4.08;63.11
78182;BME280;67441;50.116;8.696;2023-03-15T00:30:40;100013.31;;;4.09;63.19
78182;BME280;67441;50.116;8.696;2023-03-15T00:31:37;100057.59;;;4.09;63.14
78182;BME280;67441;50.116;8.696;2023-03-15T00:32:02;100017.47;;;4.04;62.94
78182;BME280;67441;50.116;8.696;2023-03-15T00:32:28;99518.53;;;1.14;62.75
78182;BME280;67441;50.116;8.696;2023-03-15T00:32:53;100017.56;;;4.05;62.81
78182;BME280;67441;50.116;8.696;2023-03-15T00:33:19;99741.94;;;2.49;63.00
78182;BME280;67441;50.116;8.696;2023-03-15T00:33:46;99603.03;;;1.58;63.06
78182;BME280;67441;50.116;8.696;2023-03-15T00:34:12;100032.19;;;4.02;63.17
78182;BME280;67441;50.116;8.696;2023-03-15T00:34:39;99071.06;;;-1.49;62.92
78182;BME280;67441;50.116;8.696;2023-03-15T00:35:04;100013.00;;;3.98;63.26
78182;BME280;67441;50.116;8.696;2023-03-15T00:35:31;99666.69;;;1.98;62.95
78182;BME280;67441;50.116;8.696;2023-03-15T00:35:57;100058.16;;;4.00;62.42
78182;BME280;67441;50.116;8.696;2023-03-15T00:36:23;100025.06;;;3.96;62.76
78182;BME280;67441;50.116;8.696;2023-03-15T00:36:49;99782.88;;;2.31;62.60
78182;BME280;67441;50.116;8.696;2023-03-15T00:37:17;99667.41;;;1.94;62.25
78182;BME280;67441;50.116;8.696;2023-03-15T00:37:44;100020.69;;;3.95;62.50
78182;BME280;67441;50.116;8.696;2023-03-15T00:38:10;99565.00;;;1.33;62.39
78182;BME280;67441;50.116;8.696;2023-03-15T00:38:36;100019.75;;;3.93;62.84
78182;BME280;67441;50.116;8.696;2023-03-15T00:39:02;99758.53;;;2.27;62.69
78182;BME280;67441;50.116;8.696;2023-03-15T00:39:27;100018.91;;;3.94;62.81
78182;BME280;67441;50.116;8.696;2023-03-15T00:39:53;100015.28;;;3.89;62.63
78182;BME280;67441;50.116;8.696;2023-03-15T00:40:20;99890.31;;;3.08;62.58
78182;BME280;67441;50.116;8.696;2023-03-15T00:40:45;100022.97;;;3.85;62.61
78182;BME280;67441;50.116;8.696;2023-03-15T00:41:13;99645.88;;;1.47;62.69
78182;BME280;67441;50.116;8.696;2023-03-15T00:41:39;100057.78;;;3.88;63.30
78182;BME280;67441;50.116;8.696;2023-03-15T00:42:05;100019.53;;;3.87;63.20
78182;BME280;67441;50.116;8.696;2023-03-15T00:42:30;100057.81;;;3.90;62.38
78182;BME280;67441;50.116;8.696;2023-03-15T00:42:55;100008.00;;;3.79;62.69
78182;BME280;67441;50.116;8.696;2023-03-15T00:43:21;99823.56;;;2.56;62.32
78182;BME280;67441;50.116;8.696;2023-03-15T00:43:47;100019.63;;;3.89;62.47
78182;BME280;67441;50.116;8.696;2023-03-15T00:44:12;99741.09;;;2.23;62.23
78182;BME280;67441;50.116;8.696;2023-03-15T00:44:38;100021.22;;;3.85;62.30
78182;BME280;67441;50.116;8.696;2023-03-15T00:45:04;100076.81;;;3.87;62.31
78182;BME280;67441;50.116;8.696;2023-03-15T00:45:30;99386.78;;;0.03;62.14
78182;BME280;67441;50.116;8.696;2023-03-15T00:45:56;100026.44;;;3.85;62.12
78182;BME280;67441;50.116;8.696;2023-03-15T00:46:21;100021.06;;;3.80;62.31
78182;BME280;67441;50.116;8.696;2023-03-15T00:46:47;100022.78;;;3.80;62.50
78182;BME280;67441;50.116;8.696;2023-03-15T00:47:13;100019.25;;;3.78;62.31
78182;BME280;67441;50.116;8.696;2023-03-15T00:47:42;100020.34;;;3.85;62.13
78182;BME280;67441;50.116;8.696;2023-03-15T00:48:07;100027.06;;;3.78;62.46
78182;BME280;67441;50.116;8.696;2023-03-15T00:48:33;100029.69;;;3.78;62.52
78182;BME280;67441;50.116;8.696;2023-03-15T00:49:02;99615.03;;;1.07;62.45
78182;BME280;67441;50.116;8.696;2023-03-15T00:49:28;99905.88;;;2.81;62.42
78182;BME280;67441;50.116;8.696;2023-03-15T00:49:53;100036.44;;;3.73;62.62
78182;BME280;67441;50.116;8.696;2023-03-15T00:50:21;99717.44;;;1.90;62.48
78182;BME280;67441;50.116;8.696;2023-03-15T00:50:46;100031.13;;;3.70;62.65
78182;BME280;67441;50.116;8.696;2023-03-15T00:51:13;100035.56;;;3.72;62.36
78182;BME280;67441;50.116;8.696;2023-03-15T00:51:38;100035.66;;;3.75;62.49
78182;BME280;67441;50.116;8.696;2023-03-15T00:52:04;100038.31;;;3.77;62.52
78182;BME280;67441;50.116;8.696;2023-03-15T00:52:36;99438.06;;;-0.09;62.02
78182;BME280;67441;50.116;8.696;2023-03-15T00:53:02;100058.97;;;3.72;62.49
78182;BME280;67441;50.116;8.696;2023-03-15T00:53:27;100037.28;;;3.72;62.46
78182;BME280;67441;50.116;8.696;2023-03-15T00:53:53;99724.44;;;1.69;62.25
78182;BME280;67441;50.116;8.696;2023-03-15T00:54:18;100034.59;;;3.70;62.58
78182;BME280;67441;50.116;8.696;2023-03-15T00:54:50;99514.13;;;0.63;62.11
78182;BME280;67441;50.116;8.696;2023-03-15T00:55:20;100035.31;;;3.65;62.26
78182;BME280;67441;50.116;8.696;2023-03-15T00:55:45;99533.44;;;0.27;62.77
78182;BME280;67441;50.116;8.696;2023-03-15T00:56:12;100031.53;;;3.56;62.74
78182;BME280;67441;50.116;8.696;2023-03-15T00:56:38;100039.41;;;3.58;62.65
78182;BME280;67441;50.116;8.696;2023-03-15T00:57:05;100083.78;;;3.61;62.77
78182;BME280;67441;50.116;8.696;2023-03-15T00:57:33;100031.72;;;3.61;62.90
78182;BME280;67441;50.116;8.696;2023-03-15T00:57:58;99729.97;;;1.78;62.77
78182;BME280;67441;50.116;8.696;2023-03-15T00:58:24;100036.03;;;3.61;62.47
78182;BME280;67441;50.116;8.696;2023-03-15T00:58:50;100049.81;;;3.58;62.48
78182;BME280;67441;50.116;8.696;2023-03-15T00:59:19;99487.50;;;0.43;62.35
78182;BME280;67441;50.116;8.696;2023-03-15T00:59:46;100095.91;;;3.61;62.60
78182;BME280;67441;50.116;8.696;2023-03-15T01:00:13;100038.31;;;3.51;62.80
78182;BME280;67441;50.116;8.696;2023-03-15T01:00:41;99671.47;;;1.38;62.12
78182;BME280;67441;50.116;8.696;2023-03-15T01:01:08;100021.28;;;3.36;61.95
78182;BME280;67441;50.116;8.696;2023-03-15T01:01:34;100049.34;;;3.44;61.93
78182;BME280;67441;50.116;8.696;2023-03-15T01:02:01;100045.88;;;3.44;62.06
78182;BME280;67441;50.116;8.696;2023-03-15T01:02:26;99912.28;;;2.67;62.15
78182;BME280;67441;50.116;8.696;2023-03-15T01:02:52;100045.25;;;3.51;61.90
78182;BME280;67441;50.116;8.696;2023-03-15T01:03:18;100046.91;;;3.49;62.40
78182;BME280;67441;50.116;8.696;2023-03-15T01:03:43;99616.63;;;1.03;62.00
78182;BME280;67441;50.116;8.696;2023-03-15T01:04:12;99552.94;;;0.39;62.31
78182;BME280;67441;50.116;8.696;2023-03-15T01:04:38;99717.91;;;1.56;62.18
78182;BME280;67441;50.116;8.696;2023-03-15T01:05:04;100043.41;;;3.48;62.50
78182;BME280;67441;50.116;8.696;2023-03-15T01:05:30;99208.84;;;-1.45;62.26
78182;BME280;67441;50.116;8.696;2023-03-15T01:05:55;100057.38;;;3.50;62.53
78182;BME280;67441;50.116;8.696;2023-03-15T01:06:26;99796.13;;;1.89;62.59
78182;BME280;67441;50.116;8.696;2023-03-15T01:06:52;100059.00;;;3.47;62.88
78182;BME280;67441;50.116;8.696;2023-03-15T01:07:18;100057.19;;;3.46;63.06
78182;BME280;67441;50.116;8.696;2023-03-15T01:07:43;99534.13;;;0.45;63.05
78182;BME280;67441;50.116;8.696;2023-03-15T01:08:11;99334.84;;;-0.70;62.87
78182;BME280;67441;50.116;8.696;2023-03-15T01:08:36;100064.19;;;3.47;63.43
78182;BME280;67441;50.116;8.696;2023-03-15T01:09:03;100065.22;;;3.52;63.37
78182;BME280;67441;50.116;8.696;2023-03-15T01:09:28;99489.19;;;0.20;63.23
78182;BME280;67441;50.116;8.696;2023-03-15T01:09:55;100062.69;;;3.53;63.05
78182;BME280;67441;50.116;8.696;2023-03-15T01:10:20;100067.91;;;3.53;62.59
78182;BME280;67441;50.116;8.696;2023-03-15T01:10:46;100061.75;;;3.51;62.70
78182;BME280;67441;50.116;8.696;2023-03-15T01:11:16;100067.78;;;3.50;62.69
78182;BME280;67441;50.116;8.696;2023-03-15T01:11:41;99973.25;;;3.00;62.67
78182;BME280;67441;50.116;8.696;2023-03-15T01:12:07;100065.19;;;3.50;62.30
78182;BME280;67441;50.116;8.696;2023-03-15T01:12:33;100091.88;;;3.45;62.59
78182;BME280;67441;50.116;8.696;2023-03-15T01:12:58;99554.97;;;0.48;62.28
78182;BME280;67441;50.116;8.696;2023-03-15T01:13:24;100075.38;;;3.44;62.67
78182;BME280;67441;50.116;8.696;2023-03-15T01:13:54;100069.41;;;3.47;62.26
78182;BME280;67441;50.116;8.696;2023-03-15T01:14:20;100055.44;;;3.45;62.53
78182;BME280;67441;50.116;8.696;2023-03-15T01:14:45;100069.50;;;3.50;62.34
78182;BME280;67441;50.116;8.696;2023-03-15T01:15:13;100066.91;;;3.50;61.90
78182;BME280;67441;50.116;8.696;2023-03-15T01:15:39;99641.38;;;0.95;61.75
78182;BME280;67441;50.116;8.696;2023-03-15T01:16:04;100069.28;;;3.44;61.78
78182;BME280;67441;50.116;8.696;2023-03-15T01:16:30;99696.47;;;1.36;62.10
78182;BME280;67441;50.116;8.696;2023-03-15T01:16:56;100071.09;;;3.46;61.98
78182;BME280;67441;50.116;8.696;2023-03-15T01:17:21;99717.50;;;1.21;62.13
78182;BME280;67441;50.116;8.696;2023-03-15T01:17:46;100070.31;;;3.49;62.04
78182;BME280;67441;50.116;8.696;2023-03-15T01:18:12;100041.19;;;3.33;61.86
78182;BME280;67441;50.116;8.696;2023-03-15T01:18:38;99932.25;;;2.68;62.22
78182;BME280;67441;50.116;8.696;2023-03-15T01:19:03;100071.94;;;3.45;62.68
78182;BME280;67441;50.116;8.696;2023-03-15T01:19:28;99524.22;;;0.33;61.94
78182;BME280;67441;50.116;8.696;2023-03-15T01:19:54;100069.41;;;3.47;62.54
78182;BME280;67441;50.116;8.696;2023-03-15T01:20:20;100097.19;;;3.48;62.31
78182;BME280;67441;50.116;8.696;2023-03-15T01:20:45;100072.13;;;3.50;61.97
78182;BME280;67441;50.116;8.696;2023-03-15T01:21:12;99900.63;;;2.31;61.58
78182;BME280;67441;50.116;8.696;2023-03-15T01:21:38;100079.84;;;3.48;61.80
78182;BME280;67441;50.116;8.696;2023-03-15T01:22:04;100067.50;;;3.43;62.60
78182;BME280;67441;50.116;8.696;2023-03-15T01:22:29;99802.75;;;1.81;62.88
78182;BME280;67441;50.116;8.696;2023-03-15T01:22:54;100070.03;;;3.40;63.62
78182;BME280;67441;50.116;8.696;2023-03-15T01:23:20;100016.84;;;3.07;63.65
78182;BME280;67441;50.116;8.696;2023-03-15T01:23:45;100076.88;;;3.38;63.61
78182;BME280;67441;50.116;8.696;2023-03-15T01:24:12;100087.31;;;3.39;63.75
78182;BME280;67441;50.116;8.696;2023-03-15T01:24:38;99261.06;;;-1.51;63.80
78182;BME280;67441;50.116;8.696;2023-03-15T01:25:03;100069.91;;;3.37;64.18
78182;BME280;67441;50.116;8.696;2023-03-15T01:25:29;99929.53;;;2.41;64.96
78182;BME280;67441;50.116;8.696;2023-03-15T01:25:54;100069.56;;;3.27;65.35
78182;BME280;67441;50.116;8.696;2023-03-15T01:26:19;99635.31;;;0.72;65.20
78182;BME280;67441;50.116;8.696;2023-03-15T01:26:45;100078.88;;;3.21;65.93
78182;BME280;67441;50.116;8.696;2023-03-15T01:27:10;100113.69;;;3.24;65.71
78182;BME280;67441;50.116;8.696;2023-03-15T01:27:36;100076.22;;;3.19;65.94
78182;BME280;67441;50.116;8.696;2023-03-15T01:28:01;99951.84;;;2.35;65.91
78182;BME280;67441;50.116;8.696;2023-03-15T01:28:27;100077.00;;;3.17;66.22
78182;BME280;67441;50.116;8.696;2023-03-15T01:28:52;100082.19;;;3.17;66.53
78182;BME280;67441;50.116;8.696;2023-03-15T01:29:19;99903.31;;;2.10;66.42
78182;BME280;67441;50.116;8.696;2023-03-15T01:29:44;100077.59;;;3.09;66.54
78182;BME280;67441;50.116;8.696;2023-03-15T01:30:10;100016.41;;;2.71;66.65
78182;BME280;67441;50.116;8.696;2023-03-15T01:30:35;100073.41;;;3.13;66.53
78182;BME280;67441;50.116;8.696;2023-03-15T01:31:00;99512.97;;;-0.33;66.35
78182;BME280;67441;50.116;8.696;2023-03-15T01:31:27;100074.25;;;3.12;66.71
78182;BME280;67441;50.116;8.696;2023-03-15T01:31:53;99976.41;;;2.44;66.93
78182;BME280;67441;50.116;8.696;2023-03-15T01:32:18;100075.88;;;3.10;67.06
78182;BME280;67441;50.116;8.696;2023-03-15T01:32:43;99522.78;;;-0.25;66.88
78182;BME280;67441;50.116;8.696;2023-03-15T01:33:09;100075.78;;;3.07;67.08
78182;BME280;67441;50.116;8.696;2023-03-15T01:33:34;99285.03;;;-1.74;66.90
78182;BME280;67441;50.116;8.696;2023-03-15T01:33:59;99787.31;;;1.16;67.31
78182;BME280;67441;50.116;8.696;2023-03-15T01:34:25;99167.63;;;-2.27;67.28
78182;BME280;67441;50.116;8.696;2023-03-15T01:34:50;100074.00;;;3.06;67.18
78182;BME280;67441;50.116;8.696;2023-03-15T01:35:15;100062.63;;;3.02;67.38
78182;BME280;67441;50.116;8.696;2023-03-15T01:35:41;100071.19;;;3.00;67.78
78182;BME280;67441;50.116;8.696;2023-03-15T01:36:06;99994.41;;;2.61;67.65
78182;BME280;67441;50.116;8.696;2023-03-15T01:36:32;100070.44;;;3.04;67.76
78182;BME280;67441;50.116;8.696;2023-03-15T01:36:57;99913.09;;;2.18;67.35
78182;BME280;67441;50.116;8.696;2023-03-15T01:37:22;100071.28;;;3.03;67.47
78182;BME280;67441;50.116;8.696;2023-03-15T01:37:49;100066.97;;;3.03;67.65
78182;BME280;67441;50.116;8.696;2023-03-15T01:38:15;100114.53;;;3.01;67.76
78182;BME280;67441;50.116;8.696;2023-03-15T01:38:40;100067.53;;;2.95;68.07
78182;BME280;67441;50.116;8.696;2023-03-15T01:39:06;99454.59;;;-0.70;67.79
78182;BME280;67441;50.116;8.696;2023-03-15T01:39:31;100067.47;;;2.93;67.97
78182;BME280;67441;50.116;8.696;2023-03-15T01:40:00;99200.19;;;-2.08;67.61
78182;BME280;67441;50.116;8.696;2023-03-15T01:40:25;99939.09;;;1.95;68.19
78182;BME280;67441;50.116;8.696;2023-03-15T01:40:50;100077.09;;;2.96;68.16
78182;BME280;67441;50.116;8.696;2023-03-15T01:41:17;99578.09;;;-0.21;67.68
78182;BME280;67441;50.116;8.696;2023-03-15T01:41:42;99928.00;;;1.99;67.96
78182;BME280;67441;50.116;8.696;2023-03-15T01:42:08;100081.41;;;2.95;68.40
78182;BME280;67441;50.116;8.696;2023-03-15T01:42:50;99509.31;;;-0.59;67.76
78182;BME280;67441;50.116;8.696;2023-03-15T01:43:18;100080.69;;;2.99;68.29
78182;BME280;67441;50.116;8.696;2023-03-15T01:43:44;100075.41;;;2.98;68.14
78182;BME280;67441;50.116;8.696;2023-03-15T01:44:14;100046.72;;;2.71;68.26
78182;BME280;67441;50.116;8.696;2023-03-15T01:46:44;100040.41;;;2.64;68.80
78182;BME280;67441;50.116;8.696;2023-03-15T01:47:09;100086.50;;;2.92;68.60
78182;BME280;67441;50.116;8.696;2023-03-15T01:47:35;100075.81;;;2.84;68.83
78182;BME280;67441;50.116;8.696;2023-03-15T01:48:01;99865.41;;;1.69;68.32
78182;BME280;67441;50.116;8.696;2023-03-15T01:48:27;100084.81;;;2.94;68.54
78182;BME280;67441;50.116;8.696;2023-03-15T01:49:32;100087.53;;;2.97;68.29
78182;BME280;67441;50.116;8.696;2023-03-15T01:50:04;100084.81;;;2.94;68.16
78182;BME280;67441;50.116;8.696;2023-03-15T01:50:30;100092.69;;;2.96;67.87
78182;BME280;67441;50.116;8.696;2023-03-15T01:50:56;100094.22;;;2.91;68.08
78182;BME280;67441;50.116;8.696;2023-03-15T01:52:11;100088.34;;;2.95;68.94
78182;BME280;67441;50.116;8.696;2023-03-15T01:52:40;100098.50;;;2.89;68.57
78182;BME280;67441;50.116;8.696;2023-03-15T01:53:07;99823.44;;;1.34;68.31
78182;BME280;67441;50.116;8.696;2023-03-15T01:53:32;100093.06;;;2.82;68.51
78182;BME280;67441;50.116;8.696;2023-03-15T01:54:21;100097.50;;;2.85;68.62
78182;BME280;67441;50.116;8.696;2023-03-15T01:55:01;100097.63;;;2.88;68.87
78182;BME280;67441;50.116;8.696;2023-03-15T01:55:28;100101.03;;;2.87;68.79
78182;BME280;67441;50.116;8.696;2023-03-15T01:55:53;100094.78;;;2.82;68.55
78182;BME280;67441;50.116;8.696;2023-03-15T01:56:21;100105.91;;;2.78;68.43
78182;BME280;67441;50.116;8.696;2023-03-15T01:57:01;100093.06;;;2.82;68.58
78182;BME280;67441;50.116;8.696;2023-03-15T01:57:37;99991.72;;;2.13;68.59
78182;BME280;67441;50.116;8.696;2023-03-15T01:58:05;99990.19;;;2.19;68.95
78182;BME280;67441;50.116;8.696;2023-03-15T01:58:32;99986.28;;;2.07;68.66
78182;BME280;67441;50.116;8.696;2023-03-15T01:59:01;100102.47;;;2.79;68.84
78182;BME280;67441;50.116;8.696;2023-03-15T01:59:33;100021.06;;;2.33;68.61
78182;BME280;67441;50.116;8.696;2023-03-15T02:00:15;99999.56;;;2.15;68.55
78182;BME280;67441;50.116;8.696;2023-03-15T02:00:41;100050.31;;;2.52;69.15
78182;BME280;67441;50.116;8.696;2023-03-15T02:01:06;100106.69;;;2.77;69.37
78182;BME280;67441;50.116;8.696;2023-03-15T02:01:34;100121.25;;;2.72;69.25
78182;BME280;67441;50.116;8.696;2023-03-15T02:02:00;100098.63;;;2.69;68.97
78182;BME280;67441;50.116;8.696;2023-03-15T02:02:27;100073.28;;;2.41;69.38
78182;BME280;67441;50.116;8.696;2023-03-15T02:03:09;99978.53;;;1.86;69.50
78182;BME280;67441;50.116;8.696;2023-03-15T02:03:43;100108.25;;;2.72;69.63
78182;BME280;67441;50.116;8.696;2023-03-15T02:04:16;100106.16;;;2.63;70.03
78182;BME280;67441;50.116;8.696;2023-03-15T02:04:49;100091.41;;;2.40;69.91
78182;BME280;67441;50.116;8.696;2023-03-15T02:05:19;99841.63;;;0.92;69.62
78182;BME280;67441;50.116;8.696;2023-03-15T02:05:49;100094.72;;;2.58;69.94
78182;BME280;67441;50.116;8.696;2023-03-15T02:06:20;100090.25;;;2.54;69.77
78182;BME280;67441;50.116;8.696;2023-03-15T02:06:46;100134.06;;;2.67;69.82
78182;BME280;67441;50.116;8.696;2023-03-15T02:07:12;99908.75;;;1.49;70.24
78182;BME280;67441;50.116;8.696;2023-03-15T02:07:41;99572.84;;;-0.45;70.03
78182;BME280;67441;50.116;8.696;2023-03-15T02:08:15;99759.94;;;0.59;69.88
78182;BME280;67441;50.116;8.696;2023-03-15T02:08:45;100121.84;;;2.65;70.17
78182;BME280;67441;50.116;8.696;2023-03-15T02:09:16;100134.88;;;2.66;70.19
78182;BME280;67441;50.116;8.696;2023-03-15T02:09:52;99593.75;;;-0.39;70.26
78182;BME280;67441;50.116;8.696;2023-03-15T02:10:37;100111.44;;;2.65;70.37
78182;BME280;67441;50.116;8.696;2023-03-15T02:11:05;100165.19;;;2.66;70.40
78182;BME280;67441;50.116;8.696;2023-03-15T02:11:30;100116.63;;;2.65;70.28
78182;BME280;67441;50.116;8.696;2023-03-15T02:11:56;100082.84;;;2.42;70.48
78182;BME280;67441;50.116;8.696;2023-03-15T02:12:22;99608.47;;;-0.38;70.36
78182;BME280;67441;50.116;8.696;2023-03-15T02:12:49;100109.44;;;2.57;70.76
78182;BME280;67441;50.116;8.696;2023-03-15T02:13:18;100144.84;;;2.55;71.13
78182;BME280;67441;50.116;8.696;2023-03-15T02:13:47;99308.59;;;-2.05;70.29
78182;BME280;67441;50.116;8.696;2023-03-15T02:14:14;99460.38;;;-1.56;70.57
78182;BME280;67441;50.116;8.696;2023-03-15T02:14:39;100117.41;;;2.62;70.52
78182;BME280;67441;50.116;8.696;2023-03-15T02:15:06;100124.56;;;2.68;70.45
78182;BME280;67441;50.116;8.696;2023-03-15T02:15:32;100136.53;;;2.64;70.41
78182;BME280;67441;50.116;8.696;2023-03-15T02:15:57;100130.47;;;2.64;70.32
78182;BME280;67441;50.116;8.696;2023-03-15T02:16:24;100124.47;;;2.66;70.34
78182;BME280;67441;50.116;8.696;2023-03-15T02:16:49;100120.06;;;2.64;70.22
78182;BME280;67441;50.116;8.696;2023-03-15T02:17:21;100125.91;;;2.58;70.07
78182;BME280;67441;50.116;8.696;2023-03-15T02:17:49;100121.34;;;2.52;69.91
78182;BME280;67441;50.116;8.696;2023-03-15T02:18:15;100131.97;;;2.58;69.77
78182;BME280;67441;50.116;8.696;2023-03-15T02:18:40;99877.28;;;1.19;70.02
78182;BME280;67441;50.116;8.696;2023-03-15T02:19:06;100128.34;;;2.53;70.26
78182;BME280;67441;50.116;8.696;2023-03-15T02:19:45;100132.75;;;2.56;70.45
78182;BME280;67441;50.116;8.696;2023-03-15T02:20:34;100136.00;;;2.50;71.09
78182;BME280;67441;50.116;8.696;2023-03-15T02:21:18;100065.88;;;2.07;70.74
78182;BME280;67441;50.116;8.696;2023-03-15T02:22:00;100104.66;;;2.25;71.07
78182;BME280;67441;50.116;8.696;2023-03-15T02:22:38;100127.00;;;2.42;70.77
78182;BME280;67441;50.116;8.696;2023-03-15T02:23:12;99993.94;;;1.61;71.35
78182;BME280;67441;50.116;8.696;2023-03-15T02:23:38;100039.56;;;1.98;71.23
78182;BME280;67441;50.116;8.696;2023-03-15T02:24:19;100121.75;;;2.41;71.13
78182;BME280;67441;50.116;8.696;2023-03-15T02:25:01;100130.19;;;2.35;71.32
78182;BME280;67441;50.116;8.696;2023-03-15T02:26:40;99991.31;;;1.59;71.12
78182;BME280;67441;50.116;8.696;2023-03-15T02:27:07;100130.19;;;2.35;71.36
78182;BME280;67441;50.116;8.696;2023-03-15T02:27:32;100122.63;;;2.41;71.46
78182;BME280;67441;50.116;8.696;2023-03-15T02:28:00;100132.66;;;2.32;71.67
78182;BME280;67441;50.116;8.696;2023-03-15T02:28:26;100123.19;;;2.32;71.83
78182;BME280;67441;50.116;8.696;2023-03-15T02:28:51;100125.53;;;2.26;71.99
78182;BME280;67441;50.116;8.696;2023-03-15T02:29:18;100124.09;;;2.34;71.92
78182;BME280;67441;50.116;8.696;2023-03-15T02:29:43;100123.03;;;2.29;71.74